createdAt,value
2019-05-28T00:00:33.136Z,5.10
2019-05-28T00:01:36.914Z,6.17
2019-05-28T00:02:41.481Z,5.13
2019-05-28T00:03:45.388Z,6.07
2019-05-28T00:04:50.026Z,5.70
2019-05-28T00:05:53.734Z,5.80
2019-05-28T00:06:57.976Z,5.73
2019-05-28T00:08:02.023Z,5.70
2019-05-28T00:09:08.620Z,5.70
2019-05-28T00:10:13.803Z,5.83
2019-05-28T00:11:18.123Z,5.60
2019-05-28T00:12:21.869Z,5.77
2019-05-28T00:13:26.195Z,6.20
2019-05-28T00:14:29.988Z,5.50
2019-05-28T00:15:34.254Z,5.33
2019-05-28T00:16:37.986Z,4.87
2019-05-28T00:17:42.253Z,4.77
2019-05-28T00:18:45.912Z,5.47
2019-05-28T00:19:50.661Z,5.27
2019-05-28T00:20:54.324Z,5.23
2019-05-28T00:21:58.308Z,5.67
2019-05-28T00:23:02.028Z,5.27
2019-05-28T00:24:06.324Z,5.13
2019-05-28T00:25:10.454Z,5.00
2019-05-28T00:26:14.728Z,5.30
2019-05-28T00:27:18.430Z,4.77
2019-05-28T00:28:22.793Z,4.50
2019-05-28T00:29:27.010Z,4.67
2019-05-28T00:30:31.317Z,4.93
2019-05-28T00:31:34.982Z,5.17
2019-05-28T00:32:39.572Z,5.23
2019-05-28T00:33:43.557Z,4.67
2019-05-28T00:34:47.815Z,4.93
2019-05-28T00:35:52.017Z,5.17
2019-05-28T00:36:56.284Z,5.53
2019-05-28T00:38:00.053Z,5.50
2019-05-28T00:39:05.842Z,5.77
2019-05-28T00:40:09.904Z,5.77
2019-05-28T00:41:14.289Z,6.20
2019-05-28T00:42:18.030Z,7.20
2019-05-28T00:43:22.283Z,6.70
2019-05-28T00:44:25.980Z,6.83
2019-05-28T00:45:30.912Z,6.97
2019-05-28T00:46:34.640Z,6.70
2019-05-28T00:47:38.957Z,6.57
2019-05-28T00:48:42.656Z,6.10
2019-05-28T00:49:49.577Z,6.90
2019-05-28T00:50:52.156Z,6.50
2019-05-28T00:51:56.493Z,6.30
2019-05-28T00:53:00.224Z,5.90
2019-05-28T00:54:04.575Z,5.90
2019-05-28T00:55:09.062Z,6.20
2019-05-28T00:56:13.449Z,6.03
2019-05-28T00:57:18.015Z,6.47
2019-05-28T00:58:22.666Z,6.33
2019-05-28T00:59:27.707Z,6.23
2019-05-28T01:00:48.857Z,6.13
2019-05-28T01:01:52.564Z,5.63
2019-05-28T01:02:57.173Z,6.27
2019-05-28T01:04:00.928Z,6.50
2019-05-28T01:05:07.198Z,5.70
2019-05-28T01:06:11.237Z,6.10
2019-05-28T01:07:16.361Z,6.33
2019-05-28T01:08:20.034Z,6.33
2019-05-28T01:09:24.301Z,6.43
2019-05-28T01:10:28.347Z,6.10
2019-05-28T01:11:32.337Z,6.30
2019-05-28T01:12:36.104Z,6.90
2019-05-28T01:13:40.425Z,6.57
2019-05-28T01:14:44.513Z,6.17
2019-05-28T01:15:48.789Z,6.83
2019-05-28T01:16:52.469Z,6.83
2019-05-28T01:17:56.743Z,7.13
2019-05-28T01:19:00.816Z,6.53
2019-05-28T01:20:10.139Z,6.67
2019-05-28T01:21:14.312Z,6.73
2019-05-28T01:22:18.624Z,7.20
2019-05-28T01:23:22.314Z,7.23
2019-05-28T01:24:26.581Z,7.00
2019-05-28T01:25:30.233Z,6.87
2019-05-28T01:26:34.904Z,7.13
2019-05-28T01:27:38.660Z,7.27
2019-05-28T01:28:42.911Z,7.03
2019-05-28T01:29:46.599Z,7.03
2019-05-28T01:30:57.655Z,6.93
2019-05-28T01:31:56.242Z,6.13
2019-05-28T01:33:00.490Z,6.33
2019-05-28T01:34:04.249Z,6.77
2019-05-28T01:35:08.864Z,7.23
2019-05-28T01:36:12.555Z,7.00
2019-05-28T01:37:16.912Z,6.70
2019-05-28T01:38:21.003Z,7.13
2019-05-28T01:39:25.689Z,8.60
2019-05-28T01:40:29.680Z,7.57
2019-05-28T01:41:34.056Z,7.80
2019-05-28T01:42:37.768Z,8.07
2019-05-28T01:43:42.068Z,7.37
2019-05-28T01:44:46.190Z,7.70
2019-05-28T01:45:50.518Z,7.03
2019-05-28T01:46:54.485Z,7.50
2019-05-28T01:47:58.515Z,7.87
2019-05-28T01:49:02.504Z,7.27
2019-05-28T01:50:09.813Z,7.80
2019-05-28T01:51:13.467Z,7.17
2019-05-28T01:52:17.683Z,8.80
2019-05-28T01:53:21.661Z,9.90
2019-05-28T01:54:25.896Z,10.50
2019-05-28T01:55:29.533Z,9.33
2019-05-28T01:56:33.842Z,9.03
2019-05-28T01:57:37.623Z,10.10
2019-05-28T01:58:41.890Z,10.57
2019-05-28T01:59:45.528Z,9.37
2019-05-28T02:00:49.855Z,14.13
2019-05-28T02:01:53.514Z,13.00
2019-05-28T02:02:57.782Z,13.00
2019-05-28T02:04:01.555Z,12.90
2019-05-28T02:05:10.491Z,12.27
2019-05-28T02:06:14.120Z,14.67
2019-05-28T02:07:18.436Z,15.43
2019-05-28T02:08:22.141Z,15.37
2019-05-28T02:09:26.491Z,15.53
2019-05-28T02:10:30.123Z,16.23
2019-05-28T02:11:34.417Z,21.80
2019-05-28T02:12:38.081Z,22.47
2019-05-28T02:13:42.683Z,22.83
2019-05-28T02:14:46.690Z,24.43
2019-05-28T02:15:50.670Z,25.30
2019-05-28T02:16:54.307Z,25.27
2019-05-28T02:17:58.885Z,29.00
2019-05-28T02:19:03.044Z,29.27
2019-05-28T02:20:09.423Z,26.40
2019-05-28T02:21:13.443Z,27.37
2019-05-28T02:22:17.765Z,25.60
2019-05-28T02:23:21.474Z,26.10
2019-05-28T02:24:25.775Z,25.80
2019-05-28T02:25:29.474Z,25.60
2019-05-28T02:26:33.695Z,25.47
2019-05-28T02:27:37.407Z,27.03
2019-05-28T02:28:41.966Z,26.80
2019-05-28T02:29:45.675Z,25.33
2019-05-28T02:30:49.957Z,30.10
2019-05-28T02:31:53.972Z,35.83
2019-05-28T02:32:57.927Z,38.43
2019-05-28T02:34:01.707Z,39.07
2019-05-28T02:35:08.191Z,40.93
2019-05-28T02:36:11.872Z,43.50
2019-05-28T02:37:16.421Z,40.37
2019-05-28T02:38:20.066Z,37.53
2019-05-28T02:39:24.025Z,28.10
2019-05-28T02:40:27.664Z,33.93
2019-05-28T02:41:32.134Z,65.17
2019-05-28T02:42:35.773Z,58.07
2019-05-28T02:43:40.042Z,57.13
2019-05-28T02:44:44.007Z,49.20
2019-05-28T02:45:48.262Z,42.00
2019-05-28T02:46:51.951Z,28.80
2019-05-28T02:47:56.184Z,24.67
2019-05-28T02:49:00.270Z,25.10
2019-05-28T02:50:06.978Z,21.07
2019-05-28T02:51:11.996Z,21.37
2019-05-28T02:52:16.837Z,19.07
2019-05-28T02:53:20.753Z,13.70
2019-05-28T02:54:25.263Z,11.50
2019-05-28T02:55:29.799Z,10.77
2019-05-28T02:56:34.773Z,9.77
2019-05-28T02:57:40.271Z,10.33
2019-05-28T02:58:46.020Z,10.13
2019-05-28T02:59:51.049Z,9.60
2019-05-28T03:00:55.939Z,10.43
2019-05-28T03:02:01.102Z,10.17
2019-05-28T03:03:05.758Z,11.03
2019-05-28T03:04:10.525Z,10.83
2019-05-28T03:05:14.602Z,10.40
2019-05-28T03:06:19.653Z,9.90
2019-05-28T03:07:25.425Z,10.93
2019-05-28T03:08:31.585Z,11.03
2019-05-28T03:09:38.737Z,10.07
2019-05-28T03:11:48.609Z,10.10
2019-05-28T03:12:52.641Z,10.10
2019-05-28T03:13:56.935Z,11.43
2019-05-28T03:15:00.600Z,11.30
2019-05-28T03:16:06.611Z,10.23
2019-05-28T03:17:11.598Z,11.13
2019-05-28T03:18:19.115Z,10.50
2019-05-28T03:19:24.494Z,10.90
2019-05-28T03:20:29.112Z,13.13
2019-05-28T03:21:35.574Z,11.63
2019-05-28T03:22:41.195Z,12.97
2019-05-28T03:23:45.307Z,14.70
2019-05-28T03:24:51.125Z,18.77
2019-05-28T03:25:54.957Z,18.37
2019-05-28T03:26:59.277Z,17.67
2019-05-28T03:28:03.017Z,16.77
2019-05-28T03:29:07.241Z,14.87
2019-05-28T03:30:12.901Z,20.10
2019-05-28T03:31:17.549Z,17.57
2019-05-28T03:32:21.149Z,18.83
2019-05-28T03:33:25.509Z,17.30
2019-05-28T03:34:29.266Z,15.93
2019-05-28T03:35:33.548Z,17.30
2019-05-28T03:36:38.518Z,15.87
2019-05-28T03:37:44.994Z,15.83
2019-05-28T03:38:50.388Z,15.00
2019-05-28T03:39:56.067Z,13.07
2019-05-28T03:40:59.904Z,12.80
2019-05-28T03:42:04.164Z,12.60
2019-05-28T03:43:07.866Z,12.57
2019-05-28T03:44:12.083Z,12.07
2019-05-28T03:45:16.170Z,12.50
2019-05-28T03:46:20.816Z,12.90
2019-05-28T03:47:24.459Z,12.30
2019-05-28T03:48:28.683Z,12.97
2019-05-28T03:49:32.330Z,11.93
2019-05-28T03:50:36.889Z,11.63
2019-05-28T03:51:40.613Z,12.73
2019-05-28T03:52:44.823Z,13.57
2019-05-28T03:53:48.460Z,13.30
2019-05-28T03:54:52.703Z,17.43
2019-05-28T03:55:56.467Z,15.80
2019-05-28T03:57:00.762Z,16.30
2019-05-28T03:58:04.820Z,30.93
2019-05-28T03:59:09.050Z,43.27
2019-05-28T04:00:12.996Z,44.47
2019-05-28T04:01:17.614Z,32.03
2019-05-28T04:02:23.854Z,33.83
2019-05-28T04:03:27.265Z,33.93
2019-05-28T04:04:31.283Z,33.67
2019-05-28T04:05:35.574Z,22.30
2019-05-28T04:06:39.272Z,20.60
2019-05-28T04:07:43.486Z,20.43
2019-05-28T04:08:47.131Z,29.27
2019-05-28T04:09:51.375Z,32.13
2019-05-28T04:10:55.079Z,29.87
2019-05-28T04:11:59.357Z,24.07
2019-05-28T04:13:03.089Z,23.57
2019-05-28T04:14:07.362Z,22.53
2019-05-28T04:15:11.503Z,19.97
2019-05-28T04:16:15.710Z,20.80
2019-05-28T04:17:19.767Z,19.13
2019-05-28T04:18:24.378Z,18.03
2019-05-28T04:19:28.144Z,14.20
2019-05-28T04:20:32.385Z,15.17
2019-05-28T04:21:36.374Z,15.13
2019-05-28T04:22:40.663Z,16.80
2019-05-28T04:23:44.324Z,16.30
2019-05-28T04:24:48.671Z,16.33
2019-05-28T04:25:52.685Z,15.17
2019-05-28T04:26:57.292Z,14.13
2019-05-28T04:28:00.971Z,13.50
2019-05-28T04:29:05.212Z,14.87
2019-05-28T04:30:09.303Z,13.60
2019-05-28T04:31:13.529Z,11.90
2019-05-28T04:32:17.508Z,11.33
2019-05-28T04:33:21.825Z,11.30
2019-05-28T04:34:25.466Z,11.50
2019-05-28T04:35:29.738Z,11.87
2019-05-28T04:36:33.491Z,11.53
2019-05-28T04:37:37.724Z,15.13
2019-05-28T04:38:41.432Z,15.80
2019-05-28T04:39:46.001Z,17.63
2019-05-28T04:40:49.658Z,15.40
2019-05-28T04:41:53.906Z,16.80
2019-05-28T04:42:57.565Z,17.17
2019-05-28T04:44:01.776Z,19.07
2019-05-28T04:45:07.632Z,24.30
2019-05-28T04:46:11.958Z,22.30
2019-05-28T04:47:15.705Z,21.10
2019-05-28T04:48:19.950Z,25.47
2019-05-28T04:49:23.593Z,24.57
2019-05-28T04:50:27.904Z,27.07
2019-05-28T04:51:31.532Z,26.13
2019-05-28T04:52:36.181Z,25.93
2019-05-28T04:53:39.843Z,24.17
2019-05-28T04:54:44.069Z,23.27
2019-05-28T04:55:47.707Z,23.53
2019-05-28T04:56:51.951Z,24.43
2019-05-28T04:57:55.635Z,24.80
2019-05-28T04:59:03.657Z,23.97
2019-05-28T05:00:10.503Z,21.10
2019-05-28T05:01:15.712Z,16.30
2019-05-28T05:02:19.423Z,14.97
2019-05-28T05:03:23.794Z,15.57
2019-05-28T05:04:27.512Z,15.00
2019-05-28T05:05:31.834Z,16.70
2019-05-28T05:06:35.547Z,17.63
2019-05-28T05:07:39.776Z,17.83
2019-05-28T05:08:43.548Z,15.33
2019-05-28T05:09:48.061Z,15.53
2019-05-28T05:10:51.703Z,16.40
2019-05-28T05:11:56.277Z,17.77
2019-05-28T05:12:59.915Z,17.13
2019-05-28T05:14:04.185Z,16.10
2019-05-28T05:15:09.482Z,17.90
2019-05-28T05:16:13.727Z,17.93
2019-05-28T05:17:17.390Z,16.40
2019-05-28T05:18:21.606Z,14.60
2019-05-28T05:19:25.718Z,16.20
2019-05-28T05:20:34.067Z,15.10
2019-05-28T05:21:37.724Z,15.03
2019-05-28T05:22:42.361Z,13.27
2019-05-28T05:23:46.421Z,13.23
2019-05-28T05:24:50.645Z,17.47
2019-05-28T05:25:54.356Z,19.30
2019-05-28T05:26:58.603Z,19.60
2019-05-28T05:28:02.239Z,18.93
2019-05-28T05:29:06.548Z,18.53
2019-05-28T05:30:10.587Z,17.27
2019-05-28T05:31:14.929Z,16.80
2019-05-28T05:32:18.591Z,17.33
2019-05-28T05:33:22.815Z,16.17
2019-05-28T05:34:28.260Z,15.73
2019-05-28T05:35:32.768Z,15.80
2019-05-28T05:36:36.530Z,15.77
2019-05-28T05:37:41.141Z,15.67
2019-05-28T05:38:44.849Z,15.13
2019-05-28T05:39:49.380Z,15.40
2019-05-28T05:40:53.511Z,15.33
2019-05-28T05:41:57.877Z,17.10
2019-05-28T05:43:01.484Z,13.30
2019-05-28T05:44:05.813Z,14.03
2019-05-28T05:45:10.851Z,13.50
2019-05-28T05:46:15.082Z,13.60
2019-05-28T05:47:18.765Z,12.97
2019-05-28T05:48:23.654Z,13.90
2019-05-28T05:49:27.396Z,14.30
2019-05-28T05:50:32.075Z,13.73
2019-05-28T05:51:38.177Z,13.37
2019-05-28T05:52:42.428Z,13.90
2019-05-28T05:53:46.143Z,13.03
2019-05-28T05:54:50.430Z,13.40
2019-05-28T05:55:54.430Z,12.03
2019-05-28T05:56:58.721Z,12.57
2019-05-28T05:58:02.613Z,13.70
2019-05-28T05:59:07.158Z,12.30
2019-05-28T06:00:11.897Z,13.33
2019-05-28T06:01:16.274Z,13.00
2019-05-28T06:02:19.913Z,12.53
2019-05-28T06:03:39.171Z,13.23
2019-05-28T06:04:29.523Z,12.80
2019-05-28T06:05:33.856Z,12.87
2019-05-28T06:06:37.561Z,12.40
2019-05-28T06:07:43.431Z,12.97
2019-05-28T06:08:47.148Z,12.33
2019-05-28T06:09:51.411Z,12.60
2019-05-28T06:10:55.133Z,13.07
2019-05-28T06:11:59.391Z,12.60
2019-05-28T06:13:03.023Z,12.50
2019-05-28T06:14:07.865Z,13.80
2019-05-28T06:15:11.852Z,13.80
2019-05-28T06:16:15.863Z,14.80
2019-05-28T06:17:19.847Z,15.20
2019-05-28T06:18:24.084Z,14.10
2019-05-28T06:19:27.790Z,14.30
2019-05-28T06:20:32.363Z,15.13
2019-05-28T06:21:36.062Z,14.37
2019-05-28T06:22:40.286Z,14.50
2019-05-28T06:23:43.961Z,13.37
2019-05-28T06:24:48.205Z,14.23
2019-05-28T06:25:51.921Z,13.90
2019-05-28T06:26:56.203Z,13.60
2019-05-28T06:28:01.610Z,13.67
2019-05-28T06:29:09.987Z,13.87
2019-05-28T06:30:16.578Z,14.63
2019-05-28T06:31:23.078Z,15.67
2019-05-28T06:32:27.709Z,13.63
2019-05-28T06:33:35.690Z,13.67
2019-05-28T06:34:39.389Z,13.47
2019-05-28T06:35:43.934Z,13.90
2019-05-28T06:36:49.064Z,13.43
2019-05-28T06:37:56.319Z,12.87
2019-05-28T06:39:01.642Z,12.47
2019-05-28T06:40:08.266Z,13.00
2019-05-28T06:41:11.909Z,11.70
2019-05-28T06:42:17.612Z,12.67
2019-05-28T06:43:22.769Z,11.90
2019-05-28T06:44:27.161Z,11.90
2019-05-28T06:45:30.817Z,11.80
2019-05-28T06:46:36.510Z,12.10
2019-05-28T06:47:44.927Z,12.67
2019-05-28T06:48:46.194Z,12.57
2019-05-28T06:49:49.897Z,11.77
2019-05-28T06:50:54.210Z,11.77
2019-05-28T06:51:57.870Z,12.53
2019-05-28T06:53:02.414Z,12.67
2019-05-28T06:54:06.637Z,12.17
2019-05-28T06:55:11.641Z,11.93
2019-05-28T06:56:15.324Z,11.53
2019-05-28T06:57:22.983Z,11.83
2019-05-28T06:58:38.697Z,11.57
2019-05-28T06:59:31.009Z,11.83
2019-05-28T07:00:36.635Z,12.67
2019-05-28T07:01:40.975Z,10.67
2019-05-28T07:02:44.625Z,10.63
2019-05-28T07:03:49.243Z,11.13
2019-05-28T07:04:52.998Z,10.63
2019-05-28T07:06:07.102Z,10.40
2019-05-28T07:07:02.691Z,10.27
2019-05-28T07:08:06.648Z,9.40
2019-05-28T07:09:10.699Z,10.07
2019-05-28T07:10:17.467Z,7.97
2019-05-28T07:11:21.546Z,6.50
2019-05-28T07:12:26.277Z,4.87
2019-05-28T07:13:29.908Z,5.00
2019-05-28T07:14:34.731Z,5.00
2019-05-28T07:15:38.352Z,4.10
2019-05-28T07:16:52.853Z,4.47
2019-05-28T07:17:48.458Z,4.33
2019-05-28T07:18:55.585Z,4.20
2019-05-28T07:19:59.648Z,3.87
2019-05-28T07:21:03.945Z,4.03
2019-05-28T07:22:07.766Z,4.08
2019-05-28T07:23:12.055Z,3.83
2019-05-28T07:24:17.303Z,3.90
2019-05-28T07:25:21.683Z,4.08
2019-05-28T07:26:25.845Z,4.28
2019-05-28T07:27:30.170Z,3.90
2019-05-28T07:28:33.892Z,3.92
2019-05-28T07:29:38.209Z,4.60
2019-05-28T07:30:41.958Z,4.08
2019-05-28T07:31:48.997Z,4.47
2019-05-28T07:32:53.058Z,3.58
2019-05-28T07:33:58.337Z,3.52
2019-05-28T07:35:02.482Z,3.02
2019-05-28T07:36:07.074Z,3.20
2019-05-28T07:37:11.233Z,3.75
2019-05-28T07:38:15.575Z,3.40
2019-05-28T07:39:19.625Z,3.40
2019-05-28T07:40:31.580Z,3.70
2019-05-28T07:41:29.380Z,3.52
2019-05-28T07:42:33.359Z,3.65
2019-05-28T07:43:36.956Z,3.50
2019-05-28T07:44:41.216Z,3.40
2019-05-28T07:45:45.079Z,3.70
2019-05-28T07:46:49.355Z,4.60
2019-05-28T07:47:53.063Z,4.17
2019-05-28T07:48:57.338Z,3.27
2019-05-28T07:50:02.812Z,4.65
2019-05-28T07:51:07.601Z,4.97
2019-05-28T07:52:11.686Z,4.87
2019-05-28T07:53:15.720Z,4.47
2019-05-28T07:54:19.429Z,3.90
2019-05-28T07:55:23.746Z,3.60
2019-05-28T07:56:27.455Z,3.40
2019-05-28T07:57:31.678Z,3.60
2019-05-28T07:58:35.306Z,3.60
2019-05-28T07:59:41.627Z,3.77
2019-05-28T08:00:46.544Z,3.65
2019-05-28T08:01:50.725Z,3.67
2019-05-28T08:02:54.475Z,3.92
2019-05-28T08:03:58.790Z,4.00
2019-05-28T08:05:02.576Z,3.47
2019-05-28T08:06:06.785Z,3.98
2019-05-28T08:07:11.943Z,3.90
2019-05-28T08:08:19.063Z,3.77
2019-05-28T08:09:22.788Z,4.00
2019-05-28T08:10:29.415Z,4.45
2019-05-28T08:11:32.367Z,4.22
2019-05-28T08:12:36.451Z,4.15
2019-05-28T08:13:41.443Z,3.60
2019-05-28T08:14:45.959Z,3.17
2019-05-28T08:15:49.670Z,4.17
2019-05-28T08:16:53.898Z,3.55
2019-05-28T08:17:57.556Z,4.10
2019-05-28T08:19:01.966Z,4.05
2019-05-28T08:20:09.095Z,3.75
2019-05-28T08:21:13.317Z,3.30
2019-05-28T08:22:17.003Z,3.65
2019-05-28T08:23:21.498Z,3.27
2019-05-28T08:24:25.634Z,3.42
2019-05-28T08:25:46.023Z,3.92
2019-05-28T08:26:35.365Z,3.65
2019-05-28T08:27:39.639Z,3.50
2019-05-28T08:28:43.523Z,3.77
2019-05-28T08:29:47.568Z,3.87
2019-05-28T08:30:51.228Z,3.22
2019-05-28T08:31:55.789Z,3.90
2019-05-28T08:32:59.785Z,3.60
2019-05-28T08:34:06.449Z,3.67
2019-05-28T08:35:09.563Z,3.12
2019-05-28T08:36:13.958Z,3.22
2019-05-28T08:37:17.593Z,3.80
2019-05-28T08:38:22.151Z,3.40
2019-05-28T08:39:26.123Z,3.33
2019-05-28T08:40:30.273Z,3.25
2019-05-28T08:41:34.063Z,3.70
2019-05-28T08:42:38.595Z,3.75
2019-05-28T08:43:44.662Z,3.30
2019-05-28T08:44:48.905Z,3.50
2019-05-28T08:45:52.557Z,3.77
2019-05-28T08:46:56.782Z,3.35
2019-05-28T08:48:00.414Z,3.40
2019-05-28T08:49:04.935Z,3.70
2019-05-28T08:50:08.707Z,3.87
2019-05-28T08:51:13.001Z,3.40
2019-05-28T08:52:17.002Z,3.50
2019-05-28T08:53:21.311Z,3.90
2019-05-28T08:54:25.121Z,3.62
2019-05-28T08:55:29.419Z,3.80
2019-05-28T08:56:33.080Z,4.00
2019-05-28T08:57:40.097Z,4.10
2019-05-28T08:58:43.797Z,3.98
2019-05-28T08:59:48.135Z,3.62
2019-05-28T09:00:51.807Z,3.20
2019-05-28T09:01:56.040Z,3.85
2019-05-28T09:02:59.753Z,3.75
2019-05-28T09:04:04.011Z,4.35
2019-05-28T09:05:25.200Z,3.20
2019-05-28T09:06:14.332Z,4.78
2019-05-28T09:07:18.194Z,5.37
2019-05-28T09:08:37.758Z,3.95
2019-05-28T09:09:27.851Z,3.67
2019-05-28T09:10:32.950Z,3.85
2019-05-28T09:11:36.896Z,3.58
2019-05-28T09:12:41.127Z,3.62
2019-05-28T09:13:44.795Z,3.55
2019-05-28T09:14:55.790Z,3.00
2019-05-28T09:15:54.657Z,3.95
2019-05-28T09:16:58.949Z,3.80
2019-05-28T09:18:02.726Z,3.40
2019-05-28T09:19:10.306Z,3.08
2019-05-28T09:20:12.542Z,3.65
2019-05-28T09:21:16.793Z,3.40
2019-05-28T09:22:25.752Z,3.27
2019-05-28T09:23:26.428Z,3.70
2019-05-28T09:24:30.647Z,3.20
2019-05-28T09:25:34.883Z,3.60
2019-05-28T09:26:38.581Z,4.17
2019-05-28T09:27:42.920Z,4.03
2019-05-28T09:28:46.566Z,4.47
2019-05-28T09:29:50.783Z,3.90
2019-05-28T09:30:54.406Z,3.95
2019-05-28T09:31:58.713Z,4.72
2019-05-28T09:33:02.447Z,3.67
2019-05-28T09:34:06.691Z,3.72
2019-05-28T09:35:11.140Z,3.50
2019-05-28T09:36:15.353Z,4.15
2019-05-28T09:37:19.160Z,3.40
2019-05-28T09:38:23.391Z,3.98
2019-05-28T09:39:27.099Z,3.08
2019-05-28T09:40:48.311Z,3.87
2019-05-28T09:41:37.523Z,3.05
2019-05-28T09:42:42.006Z,3.87
2019-05-28T09:43:45.770Z,3.40
2019-05-28T09:44:50.079Z,3.98
2019-05-28T09:45:53.801Z,3.47
2019-05-28T09:46:58.028Z,4.17
2019-05-28T09:48:01.834Z,3.45
2019-05-28T09:49:06.171Z,3.27
2019-05-28T09:50:29.366Z,3.85
2019-05-28T09:51:16.614Z,3.85
2019-05-28T09:52:20.267Z,3.50
2019-05-28T09:53:24.643Z,3.50
2019-05-28T09:54:28.308Z,3.52
2019-05-28T09:55:32.540Z,4.05
2019-05-28T09:56:36.170Z,4.03
2019-05-28T09:57:47.505Z,3.95
2019-05-28T09:58:45.801Z,3.40
2019-05-28T09:59:50.195Z,3.65
2019-05-28T10:00:58.504Z,3.60
2019-05-28T10:02:00.681Z,3.12
2019-05-28T10:03:04.691Z,3.52
2019-05-28T10:04:09.006Z,3.40
2019-05-28T10:05:12.880Z,3.50
2019-05-28T10:06:18.223Z,3.20
2019-05-28T10:07:22.564Z,3.12
2019-05-28T10:08:26.783Z,3.67
2019-05-28T10:09:30.483Z,3.67
2019-05-28T10:10:34.759Z,3.22
2019-05-28T10:11:38.407Z,3.72
2019-05-28T10:12:42.640Z,3.12
2019-05-28T10:13:46.346Z,3.02
2019-05-28T10:14:50.582Z,2.98
2019-05-28T10:15:54.346Z,3.52
2019-05-28T10:16:58.625Z,2.98
2019-05-28T10:18:02.299Z,3.30
2019-05-28T10:19:06.677Z,2.92
2019-05-28T10:20:11.931Z,3.55
2019-05-28T10:21:18.788Z,3.40
2019-05-28T10:22:21.537Z,3.25
2019-05-28T10:23:25.777Z,3.10
2019-05-28T10:24:29.714Z,2.98
2019-05-28T10:25:34.030Z,3.45
2019-05-28T10:26:37.707Z,3.00
2019-05-28T10:27:59.425Z,3.50
2019-05-28T10:28:50.402Z,3.42
2019-05-28T10:29:52.964Z,3.58
2019-05-28T10:30:56.701Z,3.20
2019-05-28T10:32:01.036Z,3.42
2019-05-28T10:33:04.987Z,2.92
2019-05-28T10:34:09.279Z,3.30
2019-05-28T10:35:14.556Z,2.80
2019-05-28T10:36:34.337Z,3.62
2019-05-28T10:37:24.668Z,2.62
2019-05-28T10:38:28.904Z,3.25
2019-05-28T10:39:32.812Z,3.40
2019-05-28T10:40:37.344Z,3.17
2019-05-28T10:41:41.039Z,3.27
2019-05-28T10:42:45.308Z,3.85
2019-05-28T10:43:48.936Z,2.70
2019-05-28T10:44:53.232Z,3.20
2019-05-28T10:45:56.904Z,3.72
2019-05-28T10:47:01.132Z,2.85
2019-05-28T10:48:05.744Z,3.12
2019-05-28T10:49:09.988Z,3.33
2019-05-28T10:50:13.719Z,3.30
2019-05-28T10:51:18.033Z,3.15
2019-05-28T10:52:21.657Z,2.50
2019-05-28T10:53:27.453Z,3.02
2019-05-28T10:54:31.087Z,2.98
2019-05-28T10:55:35.435Z,3.22
2019-05-28T10:56:39.540Z,3.50
2019-05-28T10:57:44.169Z,3.40
2019-05-28T10:58:47.799Z,3.22
2019-05-28T10:59:52.019Z,3.40
2019-05-28T11:00:55.724Z,3.05
2019-05-28T11:01:59.907Z,3.15
2019-05-28T11:03:03.806Z,3.33
2019-05-28T11:04:08.114Z,3.17
2019-05-28T11:05:12.831Z,3.27
2019-05-28T11:06:17.186Z,2.95
2019-05-28T11:07:20.833Z,2.90
2019-05-28T11:08:25.139Z,3.30
2019-05-28T11:09:28.874Z,3.12
2019-05-28T11:10:34.217Z,2.90
2019-05-28T11:11:39.435Z,2.92
2019-05-28T11:12:43.707Z,2.42
2019-05-28T11:13:52.882Z,3.17
2019-05-28T11:14:53.736Z,2.87
2019-05-28T11:15:57.442Z,3.30
2019-05-28T11:17:01.868Z,3.22
2019-05-28T11:18:05.663Z,3.40
2019-05-28T11:19:11.259Z,3.17
2019-05-28T11:20:16.517Z,3.70
2019-05-28T11:21:22.315Z,3.77
2019-05-28T11:22:26.039Z,5.60
2019-05-28T11:23:30.379Z,3.50
2019-05-28T11:24:34.097Z,3.62
2019-05-28T11:25:47.398Z,2.85
2019-05-28T11:26:51.055Z,3.52
2019-05-28T11:27:55.311Z,3.15
2019-05-28T11:28:58.955Z,3.40
2019-05-28T11:30:03.200Z,3.83
2019-05-28T11:31:09.094Z,3.55
2019-05-28T11:32:14.184Z,3.90
2019-05-28T11:33:18.061Z,4.03
2019-05-28T11:34:22.326Z,3.45
2019-05-28T11:35:26.650Z,5.08
2019-05-28T11:36:30.962Z,3.95
2019-05-28T11:37:36.310Z,4.72
2019-05-28T11:38:40.305Z,6.30
2019-05-28T11:39:43.944Z,5.30
2019-05-28T11:40:50.593Z,2.70
2019-05-28T11:41:54.754Z,3.40
2019-05-28T11:42:59.178Z,3.20
2019-05-28T11:44:04.928Z,3.83
2019-05-28T11:45:13.299Z,2.83
2019-05-28T11:46:17.041Z,3.17
2019-05-28T11:47:21.830Z,3.80
2019-05-28T11:48:25.507Z,2.47
2019-05-28T11:49:31.178Z,2.22
2019-05-28T11:50:34.859Z,2.98
2019-05-28T11:51:39.662Z,2.70
2019-05-28T11:52:43.363Z,2.70
2019-05-28T11:53:47.631Z,2.83
2019-05-28T11:54:51.291Z,2.87
2019-05-28T11:55:55.594Z,2.17
2019-05-28T11:56:59.245Z,2.22
2019-05-28T11:58:03.869Z,2.42
2019-05-28T11:59:07.909Z,2.72
2019-05-28T12:00:15.586Z,3.00
2019-05-28T12:01:33.728Z,2.80
2019-05-28T12:02:24.881Z,2.98
2019-05-28T12:03:28.580Z,2.95
2019-05-28T12:04:33.107Z,3.17
2019-05-28T12:05:36.855Z,2.50
2019-05-28T12:06:41.350Z,2.50
2019-05-28T12:07:45.045Z,2.60
2019-05-28T12:08:49.294Z,2.60
2019-05-28T12:09:52.996Z,2.52
2019-05-28T12:10:57.237Z,2.12
2019-05-28T12:12:01.035Z,2.65
2019-05-28T12:13:04.985Z,2.83
2019-05-28T12:14:08.744Z,2.60
2019-05-28T12:15:14.996Z,3.22
2019-05-28T12:16:18.653Z,3.17
2019-05-28T12:17:40.826Z,2.98
2019-05-28T12:18:30.111Z,2.60
2019-05-28T12:19:34.488Z,2.83
2019-05-28T12:20:38.317Z,2.47
2019-05-28T12:21:43.963Z,2.80
2019-05-28T12:22:47.662Z,3.17
2019-05-28T12:23:51.964Z,2.92
2019-05-28T12:24:55.702Z,2.67
2019-05-28T12:25:59.969Z,2.75
2019-05-28T12:27:03.627Z,3.22
2019-05-28T12:28:07.904Z,3.00
2019-05-28T12:29:11.540Z,2.90
2019-05-28T12:30:18.814Z,3.00
2019-05-28T12:31:22.512Z,2.77
2019-05-28T12:32:26.797Z,2.52
2019-05-28T12:33:30.505Z,2.80
2019-05-28T12:34:34.736Z,2.70
2019-05-28T12:35:42.677Z,2.60
2019-05-28T12:36:44.611Z,3.37
2019-05-28T12:37:50.385Z,3.12
2019-05-28T12:38:54.245Z,3.12
2019-05-28T12:39:57.869Z,2.70
2019-05-28T12:41:01.857Z,3.52
2019-05-28T12:42:07.392Z,2.92
2019-05-28T12:43:11.488Z,3.30
2019-05-28T12:44:17.417Z,3.22
2019-05-28T12:45:34.214Z,2.58
2019-05-28T12:46:26.980Z,3.30
2019-05-28T12:47:31.224Z,3.05
2019-05-28T12:48:35.305Z,3.15
2019-05-28T12:49:39.605Z,2.83
2019-05-28T12:50:43.279Z,3.15
2019-05-28T12:51:47.565Z,2.87
2019-05-28T12:52:51.364Z,3.47
2019-05-28T12:53:55.866Z,3.22
2019-05-28T12:54:59.621Z,3.85
2019-05-28T12:56:03.931Z,2.90
2019-05-28T12:57:08.027Z,3.08
2019-05-28T12:58:12.340Z,2.58
2019-05-28T12:59:16.032Z,3.27
2019-05-28T13:00:21.289Z,3.00
2019-05-28T13:01:25.245Z,3.08
2019-05-28T13:02:29.557Z,3.58
2019-05-28T13:03:33.360Z,3.35
2019-05-28T13:04:37.670Z,3.27
2019-05-28T13:05:41.628Z,3.08
2019-05-28T13:06:45.896Z,4.00
2019-05-28T13:08:06.447Z,3.30
2019-05-28T13:08:55.540Z,4.00
2019-05-28T13:09:59.537Z,3.20
2019-05-28T13:11:03.921Z,3.50
2019-05-28T13:12:07.636Z,3.33
2019-05-28T13:13:12.287Z,3.10
2019-05-28T13:14:15.923Z,3.60
2019-05-28T13:15:20.781Z,2.98
2019-05-28T13:16:24.439Z,3.22
2019-05-28T13:17:28.895Z,3.15
2019-05-28T13:18:32.542Z,2.92
2019-05-28T13:19:36.497Z,2.58
2019-05-28T13:20:40.996Z,3.25
2019-05-28T13:21:44.973Z,3.10
2019-05-28T13:22:48.749Z,2.92
2019-05-28T13:23:52.702Z,3.42
2019-05-28T13:24:56.418Z,2.80
2019-05-28T13:26:00.670Z,3.00
2019-05-28T13:27:17.710Z,2.70
2019-05-28T13:28:11.343Z,3.42
2019-05-28T13:29:14.988Z,2.98
2019-05-28T13:30:19.609Z,3.42
2019-05-28T13:31:23.316Z,3.60
2019-05-28T13:32:27.844Z,3.17
2019-05-28T13:33:31.558Z,3.65
2019-05-28T13:34:35.801Z,3.17
2019-05-28T13:35:39.427Z,3.27
2019-05-28T13:36:43.647Z,3.00
2019-05-28T13:37:47.395Z,3.37
2019-05-28T13:38:51.692Z,3.20
2019-05-28T13:39:55.724Z,3.33
2019-05-28T13:40:59.970Z,2.92
2019-05-28T13:42:03.675Z,3.15
2019-05-28T13:43:08.033Z,3.45
2019-05-28T13:44:11.671Z,3.33
2019-05-28T13:45:17.949Z,3.40
2019-05-28T13:46:21.615Z,3.50
2019-05-28T13:47:33.511Z,3.90
2019-05-28T13:48:31.725Z,4.00
2019-05-28T13:49:35.946Z,3.25
2019-05-28T13:50:39.615Z,3.08
2019-05-28T13:51:43.839Z,3.27
2019-05-28T13:52:47.469Z,3.30
2019-05-28T13:53:51.792Z,3.08
2019-05-28T13:54:55.489Z,3.30
2019-05-28T13:55:59.792Z,3.87
2019-05-28T13:57:03.485Z,3.00
2019-05-28T13:58:07.733Z,3.70
2019-05-28T13:59:11.392Z,4.62
2019-05-28T14:00:18.540Z,4.10
2019-05-28T14:01:25.602Z,4.67
2019-05-28T14:02:28.512Z,4.22
2019-05-28T14:03:35.540Z,4.20
2019-05-28T14:04:39.886Z,4.03
2019-05-28T14:05:43.598Z,4.47
2019-05-28T14:06:47.838Z,3.55
2019-05-28T14:07:51.579Z,3.72